createdAt,value
2019-03-11T00:00:30.345Z,7.30
2019-03-11T00:05:24.930Z,7.20
2019-03-11T00:10:19.515Z,7.20
2019-03-11T00:15:14.275Z,7.10
2019-03-11T00:20:10.374Z,7.00
2019-03-11T00:25:06.468Z,7.00
2019-03-11T00:30:01.147Z,6.90
2019-03-11T00:34:56.519Z,6.80
2019-03-11T00:39:51.087Z,6.80
2019-03-11T00:44:45.669Z,6.70
2019-03-11T00:49:40.291Z,6.60
2019-03-11T00:54:34.903Z,6.60
2019-03-11T00:59:29.467Z,6.50
2019-03-11T01:04:24.047Z,6.50
2019-03-11T01:09:18.724Z,6.50
2019-03-11T01:14:13.319Z,6.50
2019-03-11T01:19:07.901Z,6.60
2019-03-11T01:24:02.497Z,6.50
2019-03-11T01:28:57.085Z,6.30
2019-03-11T01:33:51.670Z,6.30
2019-03-11T01:38:46.248Z,6.20
2019-03-11T01:43:40.850Z,6.10
2019-03-11T01:48:35.505Z,6.20
2019-03-11T01:53:30.078Z,6.10
2019-03-11T01:58:24.662Z,6.00
2019-03-11T02:03:19.254Z,6.00
2019-03-11T02:08:13.839Z,5.90
2019-03-11T02:13:08.452Z,5.90
2019-03-11T02:18:03.040Z,5.80
2019-03-11T02:22:57.610Z,5.80
2019-03-11T02:27:52.201Z,5.70
2019-03-11T02:32:46.957Z,5.70
2019-03-11T02:37:41.690Z,5.60
2019-03-11T02:42:36.270Z,5.60
2019-03-11T02:47:30.861Z,5.60
2019-03-11T02:52:25.441Z,5.60
2019-03-11T02:57:20.045Z,5.60
2019-03-11T03:02:30.983Z,5.60
2019-03-11T03:07:25.633Z,5.60
2019-03-11T03:12:20.221Z,5.50
2019-03-11T03:17:14.821Z,5.50
2019-03-11T03:22:09.419Z,5.50
2019-03-11T03:27:04.019Z,5.50
2019-03-11T03:31:58.627Z,5.50
2019-03-11T03:36:53.197Z,5.50
2019-03-11T03:41:47.782Z,5.50
2019-03-11T03:46:42.381Z,5.50
2019-03-11T03:51:36.983Z,5.60
2019-03-11T03:56:31.576Z,5.70
2019-03-11T04:01:26.218Z,5.70
2019-03-11T04:06:20.806Z,5.80
2019-03-11T04:11:15.409Z,5.70
2019-03-11T04:16:10.006Z,5.80
2019-03-11T04:21:04.757Z,5.80
2019-03-11T04:25:59.392Z,6.00
2019-03-11T04:30:54.148Z,6.10
2019-03-11T04:35:48.789Z,6.20
2019-03-11T04:40:43.384Z,6.20
2019-03-11T04:45:37.984Z,6.30
2019-03-11T04:50:32.559Z,6.30
2019-03-11T04:55:27.146Z,6.30
2019-03-11T05:00:33.781Z,6.30
2019-03-11T05:05:28.342Z,6.30
2019-03-11T05:10:22.938Z,6.30
2019-03-11T05:15:17.619Z,6.30
2019-03-11T05:20:17.295Z,6.10
2019-03-11T05:25:14.698Z,6.10
2019-03-11T05:30:21.071Z,6.00
2019-03-11T05:35:15.707Z,6.00
2019-03-11T05:40:17.454Z,6.00
2019-03-11T05:45:19.967Z,6.00
2019-03-11T05:50:18.888Z,6.00
2019-03-11T05:55:14.915Z,6.10
2019-03-11T06:00:22.969Z,6.20
2019-03-11T06:05:17.748Z,6.30
2019-03-11T06:10:15.188Z,6.30
2019-03-11T06:15:14.996Z,6.30
2019-03-11T06:20:17.167Z,6.40
2019-03-11T06:25:11.837Z,6.40
2019-03-11T06:30:10.477Z,6.50
2019-03-11T06:35:05.763Z,6.50
2019-03-11T06:40:00.596Z,6.60
2019-03-11T06:44:55.185Z,6.60
2019-03-11T06:49:49.800Z,6.60
2019-03-11T06:54:45.898Z,6.60
2019-03-11T06:59:40.584Z,6.60
2019-03-11T07:04:35.565Z,6.60
2019-03-11T07:09:30.448Z,6.40
2019-03-11T07:14:25.220Z,6.40
2019-03-11T07:19:19.888Z,6.30
2019-03-11T07:24:14.552Z,6.10
2019-03-11T07:29:10.747Z,6.10
2019-03-11T07:34:05.554Z,6.10
2019-03-11T07:39:00.371Z,6.00
2019-03-11T07:43:54.973Z,6.10
2019-03-11T07:48:49.747Z,6.10
2019-03-11T07:53:44.336Z,5.90
2019-03-11T07:58:38.986Z,5.80
2019-03-11T08:03:33.569Z,5.70
2019-03-11T08:08:29.519Z,5.80
2019-03-11T08:13:24.360Z,5.80
2019-03-11T08:18:19.014Z,5.90
2019-03-11T08:23:13.622Z,5.50
2019-03-11T08:28:10.969Z,3.20
2019-03-11T08:33:05.600Z,2.30
2019-03-11T08:38:04.962Z,2.10
2019-03-11T08:43:00.607Z,2.20
2019-03-11T08:47:55.530Z,2.40
2019-03-11T08:52:50.122Z,2.60
2019-03-11T08:57:44.887Z,2.90
2019-03-11T09:02:44.465Z,3.30
2019-03-11T09:07:39.481Z,3.60
2019-03-11T09:12:37.157Z,3.60
2019-03-11T09:17:31.913Z,3.70
2019-03-11T09:22:26.479Z,3.90
2019-03-11T09:27:22.089Z,4.10
2019-03-11T09:32:19.270Z,4.30
2019-03-11T09:37:13.179Z,4.40
2019-03-11T09:42:11.176Z,4.50
2019-03-11T09:47:06.186Z,4.70
2019-03-11T09:52:00.976Z,5.00
2019-03-11T09:56:55.755Z,5.40
2019-03-11T10:01:50.410Z,5.70
2019-03-11T10:06:45.005Z,5.90
2019-03-11T10:11:40.480Z,6.00
2019-03-11T10:16:35.069Z,6.10
2019-03-11T10:21:29.799Z,6.30
2019-03-11T10:26:31.045Z,6.10
2019-03-11T10:31:25.698Z,6.10
2019-03-11T10:36:23.287Z,6.30
2019-03-11T10:41:19.648Z,6.60
2019-03-11T10:46:14.374Z,6.90
2019-03-11T10:51:10.262Z,6.90
2019-03-11T10:56:06.620Z,6.90
2019-03-11T11:01:01.912Z,6.90
2019-03-11T11:05:56.507Z,6.50
2019-03-11T11:10:51.118Z,5.00
2019-03-11T11:15:45.778Z,3.30
2019-03-11T11:20:40.823Z,2.60
2019-03-11T11:25:46.413Z,2.50
2019-03-11T11:30:41.001Z,2.60
2019-03-11T11:35:35.614Z,2.70
2019-03-11T11:40:34.010Z,2.70
2019-03-11T11:45:30.819Z,2.80
2019-03-11T11:50:26.997Z,3.00
2019-03-11T11:55:24.332Z,3.20
2019-03-11T12:00:52.033Z,3.30
2019-03-11T12:05:46.706Z,3.20
2019-03-11T12:10:41.294Z,3.30
2019-03-11T12:15:35.895Z,3.30
2019-03-11T12:20:34.301Z,3.20
2019-03-11T12:25:29.526Z,3.20
2019-03-11T12:30:33.555Z,3.40
2019-03-11T12:35:29.211Z,3.50
2019-03-11T12:40:24.040Z,3.70
2019-03-11T12:45:26.388Z,3.80
2019-03-11T12:50:32.503Z,4.00
2019-03-11T12:55:27.134Z,4.10
2019-03-11T13:00:25.600Z,4.30
2019-03-11T13:05:20.435Z,4.50
2019-03-11T13:10:27.376Z,4.70
2019-03-11T13:15:22.022Z,5.00
2019-03-11T13:20:33.176Z,5.00
2019-03-11T13:25:27.769Z,5.10
2019-03-11T13:30:22.839Z,5.20
2019-03-11T13:35:17.591Z,5.10
2019-03-11T13:40:15.701Z,5.00
2019-03-11T13:45:18.299Z,5.10
2019-03-11T13:50:16.160Z,5.20
2019-03-11T13:55:14.589Z,5.20
2019-03-11T14:00:19.207Z,5.40
2019-03-11T14:05:14.609Z,5.60
2019-03-11T14:10:11.750Z,5.90
2019-03-11T14:15:20.593Z,5.80
2019-03-11T14:20:16.801Z,5.50
2019-03-11T14:25:13.887Z,5.40
2019-03-11T14:30:18.412Z,5.50
2019-03-11T14:35:14.356Z,5.60
2019-03-11T14:40:20.474Z,5.80
2019-03-11T14:45:18.227Z,6.10
2019-03-11T14:50:15.171Z,6.40
2019-03-11T14:55:11.843Z,6.80
2019-03-11T15:00:18.405Z,7.00
2019-03-11T15:05:13.442Z,6.60
2019-03-11T15:10:14.816Z,6.30
2019-03-11T15:15:16.600Z,6.10
2019-03-11T15:20:11.906Z,6.20
2019-03-11T15:25:10.369Z,6.20
2019-03-11T15:30:15.299Z,6.30
2019-03-11T15:35:11.281Z,6.30
2019-03-11T15:40:10.961Z,6.40
2019-03-11T15:45:09.471Z,6.50
2019-03-11T15:50:05.862Z,6.50
2019-03-11T15:55:00.659Z,6.70
2019-03-11T15:59:55.405Z,6.40
2019-03-11T16:04:50.186Z,6.30
2019-03-11T16:09:44.746Z,6.00
2019-03-11T16:14:48.950Z,6.10
2019-03-11T16:19:35.743Z,6.20
2019-03-11T16:24:30.340Z,6.30
2019-03-11T16:29:24.950Z,6.30
2019-03-11T16:34:19.602Z,6.10
2019-03-11T16:39:14.394Z,5.90
2019-03-11T16:44:08.958Z,5.60
2019-03-11T16:49:03.621Z,5.50
2019-03-11T16:53:58.244Z,5.30
2019-03-11T16:58:52.845Z,5.10
2019-03-11T17:03:47.463Z,5.00
2019-03-11T17:08:42.040Z,4.90
2019-03-11T17:13:36.636Z,4.80
2019-03-11T17:18:31.400Z,4.80
2019-03-11T17:23:26.006Z,4.80
2019-03-11T17:28:20.595Z,4.70
2019-03-11T17:33:15.273Z,4.70
2019-03-11T17:38:09.983Z,4.70
2019-03-11T17:43:04.878Z,4.60
2019-03-11T17:48:00.211Z,4.60
2019-03-11T17:52:55.082Z,4.60
2019-03-11T17:57:49.967Z,4.60
2019-03-11T18:02:44.543Z,4.70
2019-03-11T18:07:39.142Z,4.50
2019-03-11T18:12:33.726Z,4.30
2019-03-11T18:17:28.392Z,4.20
2019-03-11T18:22:22.985Z,4.10
2019-03-11T18:27:17.691Z,4.10
2019-03-11T18:32:12.340Z,4.00
2019-03-11T18:37:07.155Z,4.00
2019-03-11T18:42:01.725Z,3.90
2019-03-11T18:46:56.344Z,3.80
2019-03-11T18:51:50.996Z,3.90
2019-03-11T18:56:45.592Z,3.90
2019-03-11T19:01:40.172Z,3.70
2019-03-11T19:06:34.778Z,3.60
2019-03-11T19:11:29.379Z,3.40
2019-03-11T19:16:24.078Z,3.30
2019-03-11T19:21:18.705Z,3.30
2019-03-11T19:26:13.369Z,3.20
2019-03-11T19:31:07.950Z,3.30
2019-03-11T19:36:02.579Z,3.30
2019-03-11T19:40:57.181Z,3.20
2019-03-11T19:45:51.791Z,3.20
2019-03-11T19:50:46.439Z,3.20
2019-03-11T19:55:41.022Z,3.20
2019-03-11T20:00:35.794Z,3.20
2019-03-11T20:05:33.583Z,3.10
2019-03-11T20:10:29.274Z,3.00
2019-03-11T20:15:24.010Z,3.10
2019-03-11T20:20:20.183Z,3.10
2019-03-11T20:25:25.350Z,3.20
2019-03-11T20:30:22.986Z,3.20
2019-03-11T20:35:18.063Z,3.20
2019-03-11T20:40:13.781Z,3.20
2019-03-11T20:45:17.555Z,3.10
2019-03-11T20:50:18.367Z,3.10
2019-03-11T20:55:20.799Z,3.10
2019-03-11T21:00:19.721Z,3.10
2019-03-11T21:05:24.541Z,3.10
2019-03-11T21:10:19.351Z,3.20
2019-03-11T21:15:16.897Z,3.20
2019-03-11T21:20:14.864Z,3.00
2019-03-11T21:25:16.471Z,3.00
2019-03-11T21:30:15.342Z,3.10
2019-03-11T21:35:10.342Z,3.20
2019-03-11T21:40:08.909Z,3.30
2019-03-11T21:45:03.647Z,3.20
2019-03-11T21:49:58.250Z,3.10
2019-03-11T21:54:52.895Z,3.20
2019-03-11T21:59:47.545Z,3.20
2019-03-11T22:04:42.154Z,3.30
2019-03-11T22:09:36.724Z,3.30
2019-03-11T22:14:31.318Z,3.30
2019-03-11T22:19:25.891Z,3.30
2019-03-11T22:24:20.489Z,3.20
2019-03-11T22:29:15.062Z,3.30
2019-03-11T22:34:09.657Z,3.20
2019-03-11T22:39:04.935Z,3.20
2019-03-11T22:43:59.551Z,3.30
2019-03-11T22:48:54.132Z,3.20
2019-03-11T22:53:51.543Z,3.20
2019-03-11T22:58:45.035Z,3.20
2019-03-11T23:03:39.603Z,3.20
2019-03-11T23:08:34.195Z,3.20
2019-03-11T23:13:28.781Z,3.10
2019-03-11T23:18:23.372Z,3.20
2019-03-11T23:23:18.029Z,3.20
2019-03-11T23:28:12.696Z,3.20
2019-03-11T23:33:07.363Z,3.10
2019-03-11T23:38:01.960Z,3.00
2019-03-11T23:42:56.542Z,2.90
2019-03-11T23:47:51.135Z,2.90
2019-03-11T23:52:45.727Z,2.90
2019-03-11T23:57:40.369Z,2.90
